createdAt,value
2019-05-30T00:00:36.752Z,6.22
2019-05-30T00:03:38.008Z,7.75
2019-05-30T00:06:39.258Z,6.53
2019-05-30T00:09:41.196Z,6.42
2019-05-30T00:12:42.434Z,6.05
2019-05-30T00:15:44.285Z,12.88
2019-05-30T00:18:45.514Z,9.70
2019-05-30T00:21:46.965Z,7.05
2019-05-30T00:24:48.197Z,6.47
2019-05-30T00:27:49.799Z,8.28
2019-05-30T00:30:51.133Z,11.00
2019-05-30T00:33:52.745Z,10.58
2019-05-30T00:36:55.569Z,5.85
2019-05-30T00:39:57.835Z,7.00
2019-05-30T00:43:00.049Z,10.08
2019-05-30T00:46:02.291Z,5.33
2019-05-30T00:49:04.512Z,7.08
2019-05-30T00:52:06.826Z,7.78
2019-05-30T00:55:08.729Z,6.62
2019-05-30T00:58:09.973Z,9.95
2019-05-30T01:01:12.913Z,7.78
2019-05-30T01:04:14.537Z,7.12
2019-05-30T01:07:15.875Z,5.55
2019-05-30T01:10:17.675Z,7.70
2019-05-30T01:13:18.924Z,9.40
2019-05-30T01:16:20.365Z,6.20
2019-05-30T01:19:21.626Z,6.62
2019-05-30T01:22:23.058Z,5.70
2019-05-30T01:25:24.403Z,11.03
2019-05-30T01:28:25.650Z,6.95
2019-05-30T01:31:26.882Z,11.45
2019-05-30T01:34:28.353Z,7.35
2019-05-30T01:37:29.707Z,6.85
2019-05-30T01:40:31.574Z,15.93
2019-05-30T01:43:32.882Z,10.65
2019-05-30T01:46:34.997Z,7.95
2019-05-30T01:49:36.599Z,5.55
2019-05-30T01:52:38.043Z,7.90
2019-05-30T01:55:39.793Z,6.55
2019-05-30T01:58:41.109Z,10.50
2019-05-30T02:01:42.662Z,6.35
2019-05-30T02:04:43.883Z,10.58
2019-05-30T02:07:45.505Z,6.33
2019-05-30T02:10:46.898Z,6.42
2019-05-30T02:13:48.134Z,8.45
2019-05-30T02:16:49.491Z,11.55
2019-05-30T02:19:50.724Z,8.90
2019-05-30T02:22:52.165Z,8.15
2019-05-30T02:25:53.411Z,6.80
2019-05-30T02:28:54.850Z,10.18
2019-05-30T02:31:56.419Z,6.80
2019-05-30T02:34:57.688Z,7.72
2019-05-30T02:38:00.851Z,3.52
2019-05-30T02:41:03.369Z,9.83
2019-05-30T02:44:06.059Z,6.20
2019-05-30T02:47:09.550Z,6.97
2019-05-30T02:50:14.193Z,3.05
2019-05-30T02:53:15.610Z,6.33
2019-05-30T02:56:17.069Z,9.35
2019-05-30T02:59:18.319Z,10.25
2019-05-30T03:02:19.772Z,7.17
2019-05-30T03:05:21.108Z,10.88
2019-05-30T03:08:22.460Z,8.08
2019-05-30T03:11:24.203Z,5.10
2019-05-30T03:14:25.757Z,5.10
2019-05-30T03:17:27.093Z,6.62
2019-05-30T03:20:28.631Z,6.53
2019-05-30T03:23:29.863Z,5.83
2019-05-30T03:26:31.412Z,6.12
2019-05-30T03:29:32.838Z,5.22
2019-05-30T03:35:42.606Z,4.95
2019-05-30T03:38:40.896Z,7.80
2019-05-30T03:41:42.357Z,9.83
2019-05-30T03:44:44.278Z,6.92
2019-05-30T03:47:52.311Z,5.75
2019-05-30T03:50:55.875Z,8.33
2019-05-30T03:53:58.855Z,8.63
2019-05-30T03:57:08.760Z,6.12
2019-05-30T04:00:31.994Z,11.78
2019-05-30T04:03:37.236Z,7.00
2019-05-30T04:06:48.356Z,7.53
2019-05-30T04:09:52.907Z,13.38
2019-05-30T04:13:25.770Z,6.92
2019-05-30T04:16:27.318Z,4.60
2019-05-30T04:19:28.599Z,7.83
2019-05-30T04:22:30.024Z,4.90
2019-05-30T04:25:31.302Z,9.23
2019-05-30T04:28:32.731Z,7.08
2019-05-30T04:31:33.957Z,24.57
2019-05-30T04:34:35.458Z,5.75
2019-05-30T04:37:36.690Z,8.65
2019-05-30T04:40:37.953Z,13.95
2019-05-30T04:43:39.202Z,5.53
2019-05-30T04:46:40.463Z,8.35
2019-05-30T04:49:41.820Z,8.10
2019-05-30T04:52:44.085Z,7.33
2019-05-30T04:55:45.537Z,6.35
2019-05-30T04:58:46.784Z,9.53
2019-05-30T05:01:48.188Z,8.90
2019-05-30T05:04:49.424Z,8.53
2019-05-30T05:07:51.133Z,8.48
2019-05-30T05:10:52.363Z,9.53
2019-05-30T05:13:53.833Z,8.75
2019-05-30T05:16:55.068Z,4.83
2019-05-30T05:19:56.511Z,7.28
2019-05-30T05:22:57.847Z,8.55
2019-05-30T05:26:01.332Z,9.15
2019-05-30T05:29:05.413Z,11.18
2019-05-30T05:32:07.041Z,8.93
2019-05-30T05:35:08.610Z,6.58
2019-05-30T05:38:10.505Z,4.90
2019-05-30T05:41:11.730Z,7.00
2019-05-30T05:44:12.999Z,6.42
2019-05-30T05:47:14.334Z,8.38
2019-05-30T05:50:16.705Z,7.03
2019-05-30T05:53:18.859Z,10.30
2019-05-30T05:56:20.832Z,6.47
2019-05-30T05:59:23.026Z,23.70
2019-05-30T06:02:25.163Z,7.67
2019-05-30T06:05:26.526Z,8.35
2019-05-30T06:08:27.950Z,6.45
2019-05-30T06:11:29.194Z,3.62
2019-05-30T06:14:30.610Z,8.38
2019-05-30T06:17:31.954Z,17.67
2019-05-30T06:20:33.621Z,7.33
2019-05-30T06:23:34.849Z,8.63
2019-05-30T06:26:36.310Z,7.50
2019-05-30T06:29:37.542Z,6.35
2019-05-30T06:32:39.005Z,6.70
2019-05-30T06:35:40.240Z,10.65
2019-05-30T06:38:41.667Z,6.95
2019-05-30T06:41:43.334Z,8.90
2019-05-30T06:44:44.810Z,7.55
2019-05-30T06:47:46.034Z,10.98
2019-05-30T06:50:47.632Z,7.03
2019-05-30T06:53:49.369Z,7.03
2019-05-30T06:56:50.624Z,10.25
2019-05-30T06:59:51.869Z,6.67
2019-05-30T07:02:53.456Z,7.72
2019-05-30T07:05:55.308Z,7.97
2019-05-30T07:09:18.679Z,4.97
2019-05-30T07:12:19.927Z,4.53
2019-05-30T07:15:23.008Z,7.20
2019-05-30T07:18:25.394Z,15.45
2019-05-30T07:21:27.645Z,5.90
2019-05-30T07:24:29.839Z,7.62
2019-05-30T07:27:32.031Z,6.17
2019-05-30T07:30:34.229Z,9.88
2019-05-30T07:33:35.774Z,8.13
2019-05-30T07:36:37.302Z,9.08
2019-05-30T07:39:39.300Z,12.80
2019-05-30T07:42:40.924Z,7.08
2019-05-30T07:45:46.907Z,8.45
2019-05-30T07:48:45.706Z,9.30
2019-05-30T07:51:47.301Z,8.70
2019-05-30T07:54:50.231Z,12.60
2019-05-30T07:57:52.791Z,8.15
2019-05-30T08:00:54.429Z,7.87
2019-05-30T08:03:55.704Z,9.53
2019-05-30T08:06:57.119Z,6.70
2019-05-30T08:09:58.375Z,8.33
2019-05-30T08:12:59.842Z,9.43
2019-05-30T08:16:01.187Z,9.08
2019-05-30T08:19:03.062Z,8.33
2019-05-30T08:22:04.518Z,8.33
2019-05-30T08:25:07.967Z,8.58
2019-05-30T08:28:09.509Z,11.50
2019-05-30T08:31:10.770Z,6.92
2019-05-30T08:34:12.406Z,5.90
2019-05-30T08:37:14.186Z,6.42
2019-05-30T08:40:16.919Z,6.30
2019-05-30T08:43:18.166Z,13.88
2019-05-30T08:46:19.521Z,5.35
2019-05-30T08:49:21.402Z,11.05
2019-05-30T08:52:22.725Z,7.15
2019-05-30T08:55:24.318Z,5.97
2019-05-30T08:58:25.557Z,8.25
2019-05-30T09:01:27.621Z,6.85
2019-05-30T09:04:28.849Z,9.25
2019-05-30T09:07:31.740Z,6.90
2019-05-30T09:10:34.077Z,7.95
2019-05-30T09:13:37.829Z,6.37
2019-05-30T09:16:39.583Z,7.85
2019-05-30T09:19:41.500Z,10.70
2019-05-30T09:22:43.753Z,7.65
2019-05-30T09:25:49.005Z,7.75
2019-05-30T09:28:49.373Z,12.07
2019-05-30T09:31:51.228Z,10.72
2019-05-30T09:34:52.642Z,7.78
2019-05-30T09:37:54.271Z,9.53
2019-05-30T09:40:55.714Z,9.38
2019-05-30T09:43:56.956Z,6.12
2019-05-30T09:46:58.424Z,14.73
2019-05-30T09:49:59.665Z,9.80
2019-05-30T09:53:01.024Z,8.80
2019-05-30T09:56:02.670Z,11.08
2019-05-30T09:59:04.328Z,12.88
2019-05-30T10:02:06.102Z,10.98
2019-05-30T10:05:08.462Z,32.70
2019-05-30T10:08:09.801Z,6.15
2019-05-30T10:11:11.291Z,6.37
2019-05-30T10:14:13.365Z,7.35
2019-05-30T10:17:15.166Z,26.12
2019-05-30T10:20:17.122Z,21.77
2019-05-30T10:23:18.910Z,11.28
2019-05-30T10:26:20.142Z,8.80
2019-05-30T10:29:21.645Z,8.40
2019-05-30T10:32:22.930Z,30.57
2019-05-30T10:35:24.933Z,9.38
2019-05-30T10:38:26.126Z,10.50
2019-05-30T10:41:27.682Z,6.10
2019-05-30T10:44:29.153Z,8.18
2019-05-30T10:47:30.735Z,6.00
2019-05-30T10:50:32.754Z,10.23
2019-05-30T10:53:37.410Z,7.05
2019-05-30T10:56:38.208Z,10.35
2019-05-30T10:59:39.904Z,10.88
2019-05-30T11:02:42.140Z,6.60
2019-05-30T11:05:47.661Z,11.12
2019-05-30T11:08:51.406Z,8.15
2019-05-30T11:11:54.915Z,5.37
2019-05-30T11:14:57.821Z,7.40
2019-05-30T11:17:59.138Z,13.15
2019-05-30T11:21:00.401Z,10.08
2019-05-30T11:24:01.641Z,8.53
2019-05-30T11:27:03.231Z,6.20
2019-05-30T11:30:07.651Z,9.30
2019-05-30T11:33:08.916Z,12.82
2019-05-30T11:36:10.153Z,8.95
2019-05-30T11:39:11.450Z,8.83
2019-05-30T11:42:13.014Z,9.65
2019-05-30T11:45:14.671Z,8.65
2019-05-30T11:48:16.038Z,7.95
2019-05-30T11:51:17.281Z,6.58
2019-05-30T11:54:18.874Z,8.63
2019-05-30T11:57:20.159Z,6.40
2019-05-30T12:00:21.669Z,6.12
2019-05-30T12:03:22.928Z,6.03
2019-05-30T12:06:24.390Z,4.53
2019-05-30T12:09:25.707Z,6.87
2019-05-30T12:12:27.592Z,15.00
2019-05-30T12:15:28.941Z,14.33
2019-05-30T12:18:30.624Z,11.15
2019-05-30T12:21:32.401Z,6.85
2019-05-30T12:24:33.841Z,10.35
2019-05-30T12:27:35.205Z,7.22
2019-05-30T12:30:37.257Z,5.42
2019-05-30T12:33:38.701Z,6.00
2019-05-30T12:36:40.248Z,6.40
2019-05-30T12:39:41.541Z,8.13
2019-05-30T12:43:04.989Z,6.62
2019-05-30T12:46:06.877Z,7.65
2019-05-30T12:49:08.494Z,15.30
2019-05-30T12:52:09.742Z,10.68
2019-05-30T12:55:12.922Z,6.30
2019-05-30T12:58:14.171Z,5.70
2019-05-30T13:01:15.636Z,8.65
2019-05-30T13:04:16.997Z,9.33
2019-05-30T13:07:18.431Z,6.65
2019-05-30T13:10:20.583Z,4.55
2019-05-30T13:13:22.246Z,3.42
2019-05-30T13:16:23.927Z,3.95
2019-05-30T13:19:25.374Z,11.40
2019-05-30T13:22:26.720Z,11.65
2019-05-30T13:25:28.435Z,8.73
2019-05-30T13:28:29.680Z,12.33
2019-05-30T13:31:31.518Z,8.05
2019-05-30T13:34:32.877Z,9.28
2019-05-30T13:37:34.631Z,5.67
2019-05-30T13:40:36.328Z,13.98
2019-05-30T13:43:38.771Z,9.05
2019-05-30T13:46:40.320Z,6.47
2019-05-30T13:49:41.710Z,4.35
2019-05-30T13:52:43.526Z,8.65
2019-05-30T13:55:46.909Z,3.55
2019-05-30T13:58:48.410Z,7.58
2019-05-30T14:01:50.393Z,5.33
2019-05-30T14:04:53.742Z,4.00
2019-05-30T14:07:55.196Z,14.70
2019-05-30T14:10:56.414Z,6.80
2019-05-30T14:14:02.729Z,9.25
2019-05-30T14:17:08.822Z,16.30
2019-05-30T14:20:11.311Z,7.12
2019-05-30T14:23:14.061Z,7.00
2019-05-30T14:26:16.788Z,10.82
2019-05-30T14:29:20.049Z,7.70
2019-05-30T14:32:21.855Z,6.60
2019-05-30T14:35:25.196Z,12.68
2019-05-30T14:38:27.176Z,9.50
2019-05-30T14:41:29.047Z,7.08
2019-05-30T14:44:30.707Z,10.98
2019-05-30T14:47:33.229Z,14.33
2019-05-30T14:50:36.417Z,8.58
2019-05-30T14:53:38.924Z,12.33
2019-05-30T14:56:41.468Z,11.00
2019-05-30T14:59:44.494Z,5.78
2019-05-30T15:02:47.669Z,9.55
2019-05-30T15:05:53.991Z,5.67
2019-05-30T15:08:56.629Z,6.03
2019-05-30T15:11:59.315Z,5.58
2019-05-30T15:15:00.743Z,11.60
2019-05-30T15:18:02.738Z,5.53
2019-05-30T15:21:04.873Z,10.55
2019-05-30T15:24:07.746Z,7.10
2019-05-30T15:27:10.060Z,7.25
2019-05-30T15:30:14.599Z,9.28
2019-05-30T15:33:16.658Z,13.15
2019-05-30T15:36:18.645Z,7.15
2019-05-30T15:39:32.271Z,17.00
2019-05-30T15:42:27.200Z,10.15
2019-05-30T15:45:29.156Z,9.10
2019-05-30T15:48:32.701Z,5.75
2019-05-30T15:51:37.957Z,6.47
2019-05-30T15:54:39.920Z,5.53
2019-05-30T15:57:41.929Z,8.18
2019-05-30T16:00:43.979Z,7.65
2019-05-30T16:03:45.437Z,7.47
2019-05-30T16:06:46.898Z,5.70
2019-05-30T16:09:49.248Z,10.32
2019-05-30T16:12:50.927Z,10.00
2019-05-30T16:15:54.797Z,7.67
2019-05-30T16:18:56.605Z,13.43
2019-05-30T16:22:00.509Z,7.15
2019-05-30T16:25:04.713Z,7.85
2019-05-30T16:28:06.837Z,7.95
2019-05-30T16:31:08.701Z,7.53
2019-05-30T16:34:32.751Z,10.55
2019-05-30T16:37:33.996Z,14.10
2019-05-30T16:40:35.997Z,18.98
2019-05-30T16:43:41.216Z,10.53
2019-05-30T16:46:42.988Z,5.00
2019-05-30T16:49:44.497Z,5.03
2019-05-30T16:52:45.743Z,8.90
2019-05-30T16:55:47.250Z,7.05
2019-05-30T16:58:48.690Z,8.13
2019-05-30T17:01:57.764Z,6.45
2019-05-30T17:04:54.381Z,9.35
2019-05-30T17:07:56.264Z,9.60
2019-05-30T17:10:58.286Z,10.35
2019-05-30T17:14:01.136Z,11.33
2019-05-30T17:17:03.301Z,10.80
2019-05-30T17:20:07.015Z,8.48
2019-05-30T17:23:09.219Z,6.78
2019-05-30T17:26:13.188Z,10.93
2019-05-30T17:29:15.505Z,6.15
2019-05-30T17:32:18.063Z,8.83
2019-05-30T17:35:21.971Z,14.03
2019-05-30T17:38:24.830Z,8.30
2019-05-30T17:41:27.181Z,9.20
2019-05-30T17:44:29.737Z,7.72
2019-05-30T17:47:31.430Z,9.85
2019-05-30T17:50:34.774Z,8.40
2019-05-30T17:53:37.019Z,11.22
2019-05-30T17:56:39.725Z,9.30
2019-05-30T17:59:41.907Z,11.40
2019-05-30T18:02:45.497Z,10.50
2019-05-30T18:05:46.744Z,9.98
2019-05-30T18:08:48.461Z,9.13
2019-05-30T18:11:52.372Z,9.83
2019-05-30T18:14:55.404Z,12.75
2019-05-30T18:17:56.958Z,17.12
2019-05-30T18:20:58.403Z,14.40
2019-05-30T18:23:59.766Z,19.98
2019-05-30T18:27:01.749Z,20.32
2019-05-30T18:30:08.674Z,42.35
2019-05-30T18:33:11.089Z,39.38
2019-05-30T18:36:12.512Z,26.62
2019-05-30T18:39:16.616Z,23.65
2019-05-30T18:42:19.750Z,31.80
2019-05-30T18:45:26.764Z,34.15
2019-05-30T18:48:31.365Z,30.45
2019-05-30T18:51:34.932Z,25.60
2019-05-30T18:54:37.395Z,23.32
2019-05-30T18:57:39.497Z,21.77
2019-05-30T19:00:41.982Z,23.27
2019-05-30T19:03:46.621Z,18.15
2019-05-30T19:06:48.901Z,17.27
2019-05-30T19:09:51.731Z,19.73
2019-05-30T19:12:56.292Z,19.67
2019-05-30T19:15:58.083Z,16.82
2019-05-30T19:19:04.654Z,21.27
2019-05-30T19:22:03.545Z,22.32
2019-05-30T19:25:06.740Z,16.67
2019-05-30T19:28:10.025Z,18.27
2019-05-30T19:31:14.260Z,21.33
2019-05-30T19:34:17.009Z,25.32
2019-05-30T19:37:19.455Z,20.48
2019-05-30T19:40:24.714Z,21.93
2019-05-30T19:43:25.875Z,16.48
2019-05-30T19:46:29.776Z,22.73
2019-05-30T19:49:32.709Z,26.33
2019-05-30T19:52:34.845Z,20.27
2019-05-30T19:55:37.599Z,25.57
2019-05-30T19:58:40.331Z,20.97
2019-05-30T20:01:44.262Z,21.00
2019-05-30T20:04:48.811Z,20.02
2019-05-30T20:07:52.461Z,19.00
2019-05-30T20:10:56.105Z,19.50
2019-05-30T20:13:59.745Z,19.80
2019-05-30T20:17:02.296Z,19.65
2019-05-30T20:20:09.415Z,16.10
2019-05-30T20:23:13.618Z,19.82
2019-05-30T20:26:16.358Z,18.10
2019-05-30T20:29:17.901Z,17.95
2019-05-30T20:32:24.829Z,17.92
2019-05-30T20:35:27.087Z,17.35
2019-05-30T20:38:28.595Z,21.48
2019-05-30T20:41:29.853Z,15.83
2019-05-30T20:44:31.382Z,16.12
2019-05-30T20:47:35.909Z,21.65
2019-05-30T20:50:37.111Z,19.10
2019-05-30T20:53:39.582Z,15.53
2019-05-30T20:56:41.493Z,16.77
2019-05-30T20:59:42.880Z,15.38
2019-05-30T21:02:45.267Z,14.90
2019-05-30T21:05:47.342Z,15.10
2019-05-30T21:08:49.375Z,12.82
2019-05-30T21:11:53.535Z,11.78
2019-05-30T21:14:55.217Z,12.25
2019-05-30T21:17:58.201Z,11.10
2019-05-30T21:20:59.672Z,13.08
2019-05-30T21:24:01.025Z,10.65
2019-05-30T21:27:02.379Z,8.95
2019-05-30T21:30:05.986Z,14.95
2019-05-30T21:33:07.634Z,12.93
2019-05-30T21:36:09.763Z,12.47
2019-05-30T21:39:13.230Z,12.07
2019-05-30T21:42:14.453Z,12.00
2019-05-30T21:45:17.081Z,12.28
2019-05-30T21:48:18.917Z,11.35
2019-05-30T21:51:20.423Z,11.38
2019-05-30T21:54:21.690Z,9.38
2019-05-30T21:57:23.241Z,16.15
2019-05-30T22:00:48.612Z,11.57
2019-05-30T22:03:51.014Z,11.40
2019-05-30T22:06:52.586Z,12.40
2019-05-30T22:09:54.238Z,11.05
2019-05-30T22:13:09.031Z,10.95
2019-05-30T22:15:58.712Z,12.35
2019-05-30T22:19:00.070Z,9.00
2019-05-30T22:22:01.433Z,14.83
2019-05-30T22:25:04.201Z,11.22
2019-05-30T22:28:05.710Z,16.07
2019-05-30T22:31:06.953Z,11.88
2019-05-30T22:34:08.351Z,12.75
2019-05-30T22:37:09.726Z,12.23
2019-05-30T22:40:12.662Z,12.75
2019-05-30T22:43:24.936Z,11.53
2019-05-30T22:46:17.170Z,12.25
2019-05-30T23:32:37.053Z,12.75
2019-05-30T23:35:38.407Z,8.38
2019-05-30T23:38:39.850Z,11.22
2019-05-30T23:41:41.777Z,14.18
2019-05-30T23:44:43.021Z,11.78
2019-05-30T23:47:46.844Z,9.53
2019-05-30T23:50:48.287Z,10.88
2019-05-30T23:53:50.015Z,11.33
2019-05-30T23:56:52.344Z,13.93
2019-05-30T23:59:54.742Z,15.70
